Time;durP1;ratioP1;P1;durP2;ratioP2;P2;SDS_P1;SDS_P2;PMS_P1;PMS_P2;Temp;Humidity;BMP_temperature;BMP_pressure;BME280_temperature;BME280_humidity;BME280_pressure;Samples;Min_cycle;Max_cycle;Signal;HPM_P1;HPM_P2
2022/04/25 00:00:18;;;;;;;18.20;14.80;;;10.20;76.10;;;;;;4995146;28;21354;-74
2022/04/25 00:02:46;;;;;;;20.80;16.40;;;10.10;76.20;;;;;;4994187;28;20549;-72
2022/04/25 00:05:14;;;;;;;32.53;25.07;;;10.10;76.20;;;;;;4999864;28;20985;-73
2022/04/25 00:07:43;;;;;;;35.50;23.70;;;10.00;76.20;;;;;;4994033;28;20489;-73
2022/04/25 00:10:13;;;;;;;22.20;19.27;;;10.00;76.10;;;;;;4994586;28;20498;-74
2022/04/25 00:12:41;;;;;;;24.87;17.23;;;9.90;76.20;;;;;;4993755;28;20465;-71
2022/04/25 00:15:10;;;;;;;24.00;19.30;;;9.90;76.20;;;;;;4998228;28;20603;-72
2022/04/25 00:17:38;;;;;;;33.03;24.93;;;9.80;76.30;;;;;;4999516;28;20994;-74
2022/04/25 00:20:08;;;;;;;18.43;14.23;;;9.80;76.20;;;;;;5002651;28;20454;-74
2022/04/25 00:22:36;;;;;;;19.70;15.37;;;9.80;76.00;;;;;;5001333;28;20464;-74
2022/04/25 00:25:06;;;;;;;20.60;16.87;;;9.80;76.10;;;;;;5003168;28;20865;-74
2022/04/25 00:27:34;;;;;;;26.70;19.90;;;9.70;76.00;;;;;;5002532;28;21231;-75
2022/04/25 00:30:02;;;;;;;35.17;26.03;;;9.70;75.80;;;;;;4995742;28;20457;-73
2022/04/25 00:32:30;;;;;;;21.33;16.63;;;9.60;75.80;;;;;;5004180;28;20484;-75
2022/04/25 00:34:58;;;;;;;20.63;16.50;;;9.50;75.80;;;;;;5003257;28;20525;-72
2022/04/25 00:37:26;;;;;;;21.00;16.00;;;9.50;75.80;;;;;;5004560;28;20554;-72
2022/04/25 00:39:54;;;;;;;20.87;15.73;;;9.40;76.00;;;;;;5001069;28;20473;-71
2022/04/25 00:42:24;;;;;;;29.97;22.83;;;9.40;76.00;;;;;;5001625;28;20554;-73
2022/04/25 00:44:52;;;;;;;38.50;28.27;;;9.40;76.00;;;;;;4998212;28;21387;-71
2022/04/25 00:47:21;;;;;;;28.27;22.07;;;9.40;76.10;;;;;;5005010;28;20488;-73
2022/04/25 00:49:49;;;;;;;47.70;32.00;;;9.40;76.20;;;;;;5003764;28;20488;-73
2022/04/25 00:52:17;;;;;;;114.80;69.37;;;9.40;76.20;;;;;;5004882;28;20480;-72
2022/04/25 00:54:45;;;;;;;90.33;54.47;;;9.40;76.10;;;;;;5000039;28;20470;-73
2022/04/25 00:57:13;;;;;;;39.83;27.07;;;9.40;76.00;;;;;;5003027;28;20461;-74
2022/04/25 00:59:44;;;;;;;23.00;14.83;;;9.40;76.00;;;;;;5000218;28;20682;-72
2022/04/25 01:02:12;;;;;;;19.63;14.83;;;9.40;76.00;;;;;;5002458;28;21346;-73
2022/04/25 01:04:42;;;;;;;24.33;13.30;;;9.40;76.00;;;;;;5006678;28;21001;-73
2022/04/25 01:07:10;;;;;;;18.60;13.90;;;9.40;75.90;;;;;;5001535;28;20457;-74
2022/04/25 01:09:38;;;;;;;16.67;12.80;;;9.40;75.70;;;;;;5002478;28;21002;-71
2022/04/25 01:12:07;;;;;;;20.53;13.67;;;9.30;75.60;;;;;;4998963;28;20461;-73
2022/04/25 01:14:35;;;;;;;17.10;13.70;;;9.30;75.40;;;;;;5005464;28;20463;-72
2022/04/25 01:17:05;;;;;;;22.20;16.27;;;9.20;75.40;;;;;;5010584;28;20488;-73
2022/04/25 01:19:33;;;;;;;21.27;15.70;;;9.20;75.60;;;;;;5009728;28;20447;-75
2022/04/25 01:22:05;;;;;;;19.50;14.60;;;9.20;75.60;;;;;;5006388;28;20472;-74
2022/04/25 01:27:21;;;;;;;73.90;50.67;;;9.20;75.30;;;;;;5002800;28;21201;-72
2022/04/25 01:29:51;;;;;;;42.37;31.87;;;9.00;75.20;;;;;;4999277;28;20225;-72
2022/04/25 01:32:20;;;;;;;36.33;25.97;;;9.00;75.30;;;;;;5001586;28;20476;-73
2022/04/25 01:34:49;;;;;;;38.07;29.07;;;9.00;75.40;;;;;;5002942;28;20976;-72
2022/04/25 01:37:18;;;;;;;34.87;26.30;;;9.00;75.50;;;;;;5003493;28;20495;-74
2022/04/25 01:39:50;;;;;;;31.40;22.77;;;9.00;75.50;;;;;;5002569;28;20464;-73
2022/04/25 01:42:20;;;;;;;29.50;22.67;;;9.00;75.60;;;;;;5002819;28;20540;-73
2022/04/25 01:44:48;;;;;;;38.13;28.90;;;9.00;75.60;;;;;;4999972;28;21034;-72
2022/04/25 01:47:17;;;;;;;36.70;26.40;;;9.00;75.70;;;;;;5002183;28;22337;-73
2022/04/25 01:49:45;;;;;;;28.80;21.33;;;9.00;75.70;;;;;;5003989;28;20559;-74
2022/04/25 01:52:19;;;;;;;28.73;21.47;;;9.00;75.80;;;;;;5002616;28;20480;-73
2022/04/25 01:54:48;;;;;;;25.53;18.87;;;9.10;75.80;;;;;;4999901;28;20481;-74
2022/04/25 01:57:17;;;;;;;20.13;15.70;;;9.10;75.80;;;;;;4999292;28;20503;-73
2022/04/25 01:59:45;;;;;;;21.30;16.10;;;9.10;75.70;;;;;;5001381;28;20456;-73
2022/04/25 02:02:13;;;;;;;19.10;15.13;;;9.10;75.70;;;;;;4999851;28;20543;-72
2022/04/25 02:04:43;;;;;;;20.37;15.73;;;9.10;75.70;;;;;;5001107;28;20573;-74
2022/04/25 02:07:11;;;;;;;22.10;17.10;;;9.10;75.70;;;;;;5003790;28;20458;-73
2022/04/25 02:09:40;;;;;;;20.53;16.87;;;9.00;75.80;;;;;;4999534;28;20982;-72
2022/04/25 02:12:09;;;;;;;18.83;16.43;;;9.10;75.90;;;;;;5001779;28;20949;-74
2022/04/25 02:14:40;;;;;;;21.90;16.27;;;9.10;75.90;;;;;;4997190;28;20496;-72
2022/04/25 02:17:08;;;;;;;26.93;18.17;;;9.10;75.90;;;;;;4999786;28;20551;-73
2022/04/25 02:19:38;;;;;;;27.43;18.97;;;9.10;75.80;;;;;;4998158;28;20503;-72
2022/04/25 02:22:07;;;;;;;21.27;16.47;;;9.00;75.80;;;;;;4999961;28;20492;-74
2022/04/25 02:24:35;;;;;;;21.13;16.70;;;9.00;75.90;;;;;;5001190;28;20468;-74
2022/04/25 02:27:03;;;;;;;23.07;17.03;;;9.00;75.90;;;;;;4999139;28;20229;-73
2022/04/25 02:29:34;;;;;;;27.37;19.07;;;9.10;76.00;;;;;;5001711;28;20472;-74
2022/04/25 02:32:02;;;;;;;24.42;18.13;;;9.10;76.00;;;;;;5016536;28;20634;-72
2022/04/25 02:34:31;;;;;;;24.00;18.30;;;9.10;76.00;;;;;;4996844;28;20676;-73
2022/04/25 02:37:00;;;;;;;23.73;18.20;;;9.10;76.00;;;;;;4997436;28;20458;-72
2022/04/25 02:39:28;;;;;;;26.07;19.63;;;9.10;76.10;;;;;;4996279;28;20468;-72
2022/04/25 02:41:56;;;;;;;24.27;18.50;;;9.10;76.20;;;;;;4996350;28;20927;-71
2022/04/25 02:44:24;;;;;;;24.52;18.98;;;9.10;76.30;;;;;;5000945;28;20460;-73
2022/04/25 02:46:54;;;;;;;25.53;19.33;;;9.20;76.30;;;;;;4999598;28;20230;-73
2022/04/25 02:49:22;;;;;;;24.93;16.53;;;9.20;76.30;;;;;;5001428;28;20484;-74
2022/04/25 02:56:05;;;;;;;24.97;17.90;;;9.20;76.30;;;;;;4998444;28;20465;-72
2022/04/25 02:58:35;;;;;;;21.47;16.00;;;9.20;76.30;;;;;;5002169;28;20459;-73
2022/04/25 03:01:04;;;;;;;25.47;17.37;;;9.10;76.30;;;;;;4999164;28;20475;-74
2022/04/25 03:03:35;;;;;;;23.90;18.03;;;9.10;76.30;;;;;;4999506;28;20456;-73
2022/04/25 03:06:05;;;;;;;23.37;16.70;;;9.10;76.30;;;;;;4998666;28;20544;-73
2022/04/25 03:08:34;;;;;;;20.43;15.97;;;9.10;76.30;;;;;;4999265;28;20472;-74
2022/04/25 03:11:04;;;;;;;19.33;16.03;;;9.10;76.40;;;;;;4992909;28;20495;-73
2022/04/25 03:13:34;;;;;;;19.63;15.00;;;9.10;76.40;;;;;;4994940;28;20474;-73
2022/04/25 03:16:03;;;;;;;21.03;16.40;;;9.10;76.50;;;;;;4996482;28;20855;-72
2022/04/25 03:18:34;;;;;;;20.93;16.60;;;9.20;76.50;;;;;;5008959;28;20468;-74
2022/04/25 03:21:02;;;;;;;21.00;17.50;;;9.20;76.50;;;;;;4997327;28;20465;-72
2022/04/25 03:23:30;;;;;;;25.53;17.00;;;9.10;76.50;;;;;;4997439;28;20456;-73
2022/04/25 03:25:58;;;;;;;21.10;17.30;;;9.20;76.60;;;;;;4996363;28;20493;-73
2022/04/25 03:28:26;;;;;;;25.00;19.00;;;9.20;76.50;;;;;;4998179;28;20563;-73
2022/04/25 03:30:54;;;;;;;27.50;20.00;;;9.20;76.50;;;;;;4999901;28;20477;-72
2022/04/25 03:33:24;;;;;;;23.53;19.13;;;9.10;76.70;;;;;;5000510;28;20476;-72
2022/04/25 03:35:53;;;;;;;27.77;21.90;;;9.10;76.60;;;;;;4997971;28;20559;-72
2022/04/25 03:38:21;;;;;;;26.73;21.53;;;9.10;76.80;;;;;;4999516;28;20483;-72
2022/04/25 03:40:49;;;;;;;25.90;18.37;;;9.20;76.90;;;;;;4998801;28;20454;-73
2022/04/25 03:43:17;;;;;;;25.73;19.60;;;9.20;77.00;;;;;;4998112;28;20468;-73
2022/04/25 03:45:45;;;;;;;25.57;19.00;;;9.20;77.10;;;;;;4991397;28;20481;-73
2022/04/25 03:48:13;;;;;;;24.90;20.00;;;9.30;77.10;;;;;;4995770;28;21048;-74
2022/04/25 03:50:41;;;;;;;28.43;22.10;;;9.30;77.10;;;;;;4998566;28;20555;-73
2022/04/25 03:53:15;;;;;;;29.40;21.73;;;9.30;77.10;;;;;;5002039;28;20868;-72
2022/04/25 03:58:30;;;;;;;27.60;20.73;;;9.30;77.20;;;;;;5000707;28;20460;-74
2022/04/25 04:00:59;;;;;;;25.57;20.50;;;9.30;77.30;;;;;;4998732;28;20485;-73
2022/04/25 04:03:27;;;;;;;25.17;18.90;;;9.30;77.20;;;;;;4996457;28;20496;-73
2022/04/25 04:05:55;;;;;;;25.00;18.87;;;9.30;77.30;;;;;;5001754;28;20493;-73
2022/04/25 04:08:25;;;;;;;26.20;18.70;;;9.30;77.30;;;;;;5001530;28;20472;-73
2022/04/25 04:10:53;;;;;;;26.53;20.10;;;9.30;77.30;;;;;;4998387;28;20477;-74
2022/04/25 04:13:21;;;;;;;27.57;21.40;;;9.30;77.40;;;;;;4999742;28;20494;-73
2022/04/25 04:15:50;;;;;;;32.43;23.70;;;9.40;77.40;;;;;;4997613;28;20500;-74
2022/04/25 04:18:18;;;;;;;31.20;23.60;;;9.30;77.40;;;;;;5000664;28;20465;-73
2022/04/25 04:20:46;;;;;;;31.27;22.10;;;9.40;77.50;;;;;;5000162;28;20548;-71
2022/04/25 04:23:14;;;;;;;31.67;21.43;;;9.40;77.60;;;;;;5000808;28;20464;-71
2022/04/25 04:25:43;;;;;;;28.00;20.80;;;9.40;77.70;;;;;;4995968;28;20493;-73
2022/04/25 04:28:11;;;;;;;24.70;17.87;;;9.50;77.70;;;;;;4998466;28;20982;-73
2022/04/25 04:30:39;;;;;;;25.10;18.27;;;9.50;77.70;;;;;;4997851;28;21055;-73
2022/04/25 04:33:08;;;;;;;21.80;17.63;;;9.50;77.60;;;;;;5000299;28;20469;-74
2022/04/25 04:38:21;;;;;;;21.47;17.57;;;9.50;77.60;;;;;;4997015;28;20609;-73
2022/04/25 04:40:51;;;;;;;19.50;16.10;;;9.50;77.60;;;;;;4995261;28;20482;-73
2022/04/25 04:43:18;;;;;;;22.10;18.20;;;9.50;77.70;;;;;;4998639;28;20457;-73
2022/04/25 04:45:46;;;;;;;22.70;18.10;;;9.50;77.70;;;;;;4993212;28;20478;-74
2022/04/25 04:48:15;;;;;;;23.40;19.07;;;9.60;77.80;;;;;;4999738;28;20477;-73
2022/04/25 04:50:43;;;;;;;23.80;19.70;;;9.60;77.80;;;;;;4998597;28;20539;-72
2022/04/25 04:53:11;;;;;;;26.87;19.77;;;9.60;77.70;;;;;;4998444;28;21282;-73
2022/04/25 04:55:39;;;;;;;23.83;18.90;;;9.50;77.70;;;;;;4997997;28;20485;-73
2022/04/25 04:58:08;;;;;;;22.73;18.77;;;9.50;77.80;;;;;;4996922;28;20479;-73
2022/04/25 05:00:36;;;;;;;22.23;18.17;;;9.50;78.00;;;;;;4995142;28;20480;-72
2022/04/25 05:03:04;;;;;;;26.20;18.83;;;9.60;78.10;;;;;;4996636;28;20476;-73
2022/04/25 05:05:33;;;;;;;23.77;19.13;;;9.60;78.10;;;;;;5004132;28;20488;-73
2022/04/25 05:08:02;;;;;;;24.50;19.47;;;9.70;78.10;;;;;;5002692;28;20496;-72
2022/04/25 05:10:30;;;;;;;24.27;19.27;;;9.70;78.20;;;;;;5003851;28;20480;-74
2022/04/25 05:12:58;;;;;;;24.97;18.60;;;9.70;78.20;;;;;;5001996;28;20473;-73
2022/04/25 05:15:27;;;;;;;21.73;17.07;;;9.70;78.30;;;;;;4998337;28;20966;-73
2022/04/25 05:17:55;;;;;;;26.40;19.47;;;9.80;78.30;;;;;;5003126;28;20464;-74
2022/04/25 05:20:24;;;;;;;23.67;18.83;;;9.80;78.30;;;;;;5001227;28;20561;-74
2022/04/25 05:22:53;;;;;;;25.57;18.90;;;9.80;78.40;;;;;;4999264;28;21569;-73
2022/04/25 05:25:22;;;;;;;24.13;19.40;;;9.80;78.50;;;;;;5005650;28;20599;-73
2022/04/25 05:27:52;;;;;;;24.13;19.53;;;9.90;78.50;;;;;;5000709;28;20870;-73
2022/04/25 05:30:22;;;;;;;22.13;18.20;;;9.90;78.60;;;;;;5003191;28;20462;-74
2022/04/25 05:32:53;;;;;;;23.37;20.00;;;9.90;78.60;;;;;;5000249;28;20475;-74
2022/04/25 05:35:24;;;;;;;25.43;20.27;;;10.00;78.60;;;;;;5002248;28;21326;-73
2022/04/25 05:37:52;;;;;;;23.03;18.33;;;10.00;78.60;;;;;;4999329;28;20830;-73
2022/04/25 05:40:21;;;;;;;24.67;19.73;;;10.00;78.60;;;;;;4999039;28;20471;-73
2022/04/25 05:42:51;;;;;;;26.90;21.70;;;10.00;78.60;;;;;;5003303;28;21084;-72
2022/04/25 05:45:20;;;;;;;27.47;22.70;;;10.00;78.70;;;;;;4998367;28;20950;-74
2022/04/25 05:47:51;;;;;;;27.30;20.43;;;10.10;78.80;;;;;;4993448;28;21044;-71
2022/04/25 05:53:06;;;;;;;30.10;21.13;;;10.20;78.90;;;;;;4996493;28;20461;-72
2022/04/25 05:55:34;;;;;;;27.43;21.70;;;10.20;79.00;;;;;;4997155;28;20543;-73
2022/04/25 05:58:02;;;;;;;26.00;21.03;;;10.20;79.10;;;;;;4998262;28;20457;-74
2022/04/25 06:00:31;;;;;;;25.60;20.33;;;10.30;79.10;;;;;;4996228;28;20472;-73
2022/04/25 06:03:01;;;;;;;26.93;20.83;;;10.30;79.20;;;;;;4997615;28;20461;-73
2022/04/25 06:05:29;;;;;;;25.70;21.60;;;10.30;79.20;;;;;;4996809;28;20487;-74
2022/04/25 06:07:57;;;;;;;26.80;21.43;;;10.40;79.20;;;;;;4997254;28;20472;-74
2022/04/25 06:10:26;;;;;;;27.33;21.47;;;10.40;79.40;;;;;;4995540;28;20531;-74
2022/04/25 06:12:54;;;;;;;26.97;22.17;;;10.40;79.40;;;;;;4995750;28;20466;-72
2022/04/25 06:15:25;;;;;;;26.27;21.37;;;10.50;79.50;;;;;;4995516;28;20527;-72
2022/04/25 06:17:54;;;;;;;30.17;23.70;;;10.50;79.40;;;;;;4999737;28;20588;-73
2022/04/25 06:20:24;;;;;;;27.53;21.03;;;10.60;79.40;;;;;;4995746;28;20467;-76
2022/04/25 06:22:53;;;;;;;24.87;20.97;;;10.60;79.40;;;;;;4997341;28;20465;-74
2022/04/25 06:25:21;;;;;;;29.03;21.97;;;10.70;79.50;;;;;;4999856;28;20477;-75
2022/04/25 06:27:49;;;;;;;28.23;20.90;;;10.70;79.40;;;;;;5000941;28;20958;-75
2022/04/25 06:30:17;;;;;;;27.37;21.87;;;10.80;79.40;;;;;;4999782;28;20881;-75
2022/04/25 06:32:45;;;;;;;25.03;21.30;;;10.80;79.40;;;;;;4996138;28;21340;-75
2022/04/25 06:35:14;;;;;;;29.57;21.50;;;10.80;79.40;;;;;;5005767;28;20481;-75
2022/04/25 06:37:43;;;;;;;26.23;21.20;;;10.90;79.40;;;;;;5005728;28;20475;-76
2022/04/25 06:40:12;;;;;;;23.83;20.07;;;10.90;79.30;;;;;;5002835;28;20461;-75
2022/04/25 06:42:40;;;;;;;25.47;20.73;;;10.90;79.30;;;;;;4998283;28;20462;-75
2022/04/25 06:45:09;;;;;;;27.77;22.43;;;10.90;79.40;;;;;;4997943;28;20473;-74
2022/04/25 06:47:37;;;;;;;27.77;22.87;;;11.00;79.40;;;;;;4995766;28;20472;-75
2022/04/25 06:50:06;;;;;;;25.63;21.27;;;11.00;79.40;;;;;;4997116;28;20458;-75
2022/04/25 06:52:35;;;;;;;25.83;21.30;;;11.00;79.40;;;;;;4998583;28;20485;-75
2022/04/25 06:55:05;;;;;;;27.70;22.17;;;11.10;79.50;;;;;;4998624;28;20477;-74
2022/04/25 06:57:33;;;;;;;27.53;22.73;;;11.10;79.50;;;;;;5001929;28;20515;-75
2022/04/25 07:00:02;;;;;;;31.10;21.70;;;11.10;79.60;;;;;;4996817;28;20469;-74
2022/04/25 07:02:51;;;;;;;28.17;22.10;;;11.20;79.80;;;;;;5001913;28;20848;-75
2022/04/25 07:05:19;;;;;;;26.90;21.60;;;11.30;79.70;;;;;;5003014;28;20507;-74
2022/04/25 07:07:47;;;;;;;26.80;21.67;;;11.30;79.70;;;;;;4998500;28;20460;-75
2022/04/25 07:10:16;;;;;;;27.90;20.67;;;11.40;79.80;;;;;;5004718;28;21085;-75
2022/04/25 07:12:45;;;;;;;22.93;19.53;;;11.50;79.90;;;;;;4998420;28;20482;-74
2022/04/25 07:15:13;;;;;;;27.30;21.43;;;11.50;79.90;;;;;;5000454;28;20489;-74
2022/04/25 07:17:41;;;;;;;25.50;20.43;;;11.60;79.90;;;;;;4999989;28;20457;-74
2022/04/25 07:20:09;;;;;;;24.40;19.50;;;11.70;79.80;;;;;;4997869;28;20489;-74
2022/04/25 07:30:56;;;;;;;25.43;19.13;;;12.00;79.40;;;;;;4994210;28;21021;-74
2022/04/25 07:33:26;;;;;;;28.63;20.97;;;12.00;79.20;;;;;;4994171;28;20497;-75
2022/04/25 07:35:54;;;;;;;26.87;21.10;;;12.10;79.10;;;;;;4997827;28;20520;-75
2022/04/25 07:38:22;;;;;;;23.23;18.83;;;12.10;78.90;;;;;;5001020;28;20468;-75
2022/04/25 07:40:51;;;;;;;26.20;21.10;;;12.00;78.80;;;;;;5004752;28;20458;-74
2022/04/25 07:43:19;;;;;;;20.73;17.37;;;12.10;78.80;;;;;;5002869;28;20445;-76
2022/04/25 07:45:47;;;;;;;21.63;16.70;;;12.10;78.80;;;;;;5004740;28;20489;-75
2022/04/25 07:48:15;;;;;;;23.40;17.87;;;12.10;78.70;;;;;;5005272;28;20483;-74
2022/04/25 07:50:44;;;;;;;25.40;17.70;;;12.10;78.70;;;;;;4998603;28;20552;-75
2022/04/25 07:53:12;;;;;;;21.20;17.17;;;12.10;78.80;;;;;;4998515;28;21037;-74
2022/04/25 07:55:40;;;;;;;24.17;19.20;;;12.20;78.80;;;;;;4999507;28;20492;-75
2022/04/25 07:58:10;;;;;;;28.67;22.80;;;12.20;78.60;;;;;;5001937;28;20461;-74
2022/04/25 08:00:40;;;;;;;36.83;21.03;;;12.30;78.70;;;;;;5000449;28;20485;-75
2022/04/25 08:03:08;;;;;;;24.23;18.07;;;12.30;78.60;;;;;;5001758;28;20463;-75
2022/04/25 08:05:36;;;;;;;27.30;21.07;;;12.40;78.50;;;;;;4996558;28;20481;-75
2022/04/25 08:08:04;;;;;;;20.57;16.37;;;12.40;78.40;;;;;;4993274;28;20453;-77
2022/04/25 08:10:32;;;;;;;19.80;13.50;;;12.50;78.30;;;;;;5005096;28;20472;-75
2022/04/25 08:18:33;;;;;;;17.63;13.30;;;12.70;77.80;;;;;;5004947;28;20510;-75
2022/04/25 08:21:01;;;;;;;15.93;13.37;;;12.70;77.30;;;;;;4999513;28;20453;-73
2022/04/25 08:23:29;;;;;;;15.17;12.37;;;12.80;77.20;;;;;;4998377;28;20488;-73
2022/04/25 08:25:57;;;;;;;16.00;12.20;;;12.80;77.00;;;;;;4999502;28;21009;-75
2022/04/25 08:28:25;;;;;;;22.07;15.90;;;12.80;77.10;;;;;;5002030;28;20468;-75
2022/04/25 08:31:15;;;;;;;17.80;13.43;;;12.80;77.00;;;;;;4995885;28;20482;-73
2022/04/25 08:33:48;;;;;;;15.13;12.00;;;12.80;76.80;;;;;;5001179;28;20548;-75
2022/04/25 08:36:18;;;;;;;18.70;15.03;;;12.90;76.70;;;;;;4998244;28;20485;-74
2022/04/25 08:38:46;;;;;;;19.67;15.40;;;12.90;76.60;;;;;;4996319;28;20476;-74
2022/04/25 08:41:17;;;;;;;18.57;15.90;;;13.00;76.40;;;;;;4999430;28;20448;-75
2022/04/25 08:43:45;;;;;;;22.20;17.20;;;13.00;76.30;;;;;;4999876;28;20843;-74
2022/04/25 08:46:14;;;;;;;18.90;14.20;;;13.00;76.20;;;;;;5001089;28;20575;-74
2022/04/25 08:48:45;;;;;;;17.17;12.40;;;13.00;76.10;;;;;;5002173;28;20547;-74
2022/04/25 08:51:22;;;;;;;18.17;13.67;;;13.00;75.90;;;;;;5005925;28;20480;-75
2022/04/25 08:53:52;;;;;;;15.93;13.40;;;13.00;75.80;;;;;;5004994;28;20468;-75
2022/04/25 08:56:25;;;;;;;16.40;12.63;;;13.00;75.90;;;;;;5005155;28;20476;-75
2022/04/25 08:58:56;;;;;;;14.97;11.03;;;13.00;75.50;;;;;;5003898;28;20843;-73
2022/04/25 09:01:25;;;;;;;15.13;11.70;;;13.10;75.70;;;;;;5001771;28;20943;-75
2022/04/25 09:03:54;;;;;;;15.10;11.40;;;13.10;75.50;;;;;;5005405;28;20460;-74
2022/04/25 09:06:22;;;;;;;14.13;10.77;;;13.10;75.00;;;;;;5001940;28;20480;-76
2022/04/25 09:08:50;;;;;;;13.97;10.97;;;13.20;75.30;;;;;;5000000;28;20816;-75
2022/04/25 09:14:04;;;;;;;12.20;10.20;;;13.20;74.90;;;;;;5005290;28;21147;-75
2022/04/25 09:16:34;;;;;;;12.47;9.70;;;13.30;74.70;;;;;;4995433;28;20488;-76
2022/04/25 09:19:02;;;;;;;12.70;8.93;;;13.30;74.90;;;;;;4997316;28;20952;-73
2022/04/25 09:21:30;;;;;;;13.37;9.43;;;13.40;74.60;;;;;;4994375;28;20458;-74
2022/04/25 09:24:00;;;;;;;11.90;9.20;;;13.50;74.40;;;;;;5002526;28;20548;-74
2022/04/25 09:26:29;;;;;;;10.57;8.57;;;13.50;74.20;;;;;;5000785;28;20485;-75
2022/04/25 09:28:59;;;;;;;11.53;9.37;;;13.50;74.10;;;;;;4998482;28;20488;-74
2022/04/25 09:31:27;;;;;;;10.70;8.17;;;13.50;73.70;;;;;;4997590;28;21120;-74
2022/04/25 09:34:14;;;;;;;12.33;8.70;;;13.50;73.80;;;;;;4999988;28;20634;-76
2022/04/25 09:36:48;;;;;;;13.43;11.00;;;13.50;73.60;;;;;;4999571;28;20964;-73
2022/04/25 09:39:28;;;;;;;12.47;9.00;;;13.50;73.30;;;;;;5000050;28;20464;-74
2022/04/25 09:41:57;;;;;;;11.90;8.43;;;13.60;73.10;;;;;;4999110;28;20465;-75
2022/04/25 09:44:30;;;;;;;11.77;8.63;;;13.60;73.10;;;;;;4997823;28;20449;-76
2022/04/25 09:46:58;;;;;;;11.03;8.77;;;13.60;73.00;;;;;;4999975;28;20476;-75
2022/04/25 09:49:27;;;;;;;20.80;11.57;;;13.60;73.00;;;;;;4997625;28;20462;-76
2022/04/25 09:52:01;;;;;;;11.70;8.43;;;13.60;72.90;;;;;;5000648;28;20511;-76
2022/04/25 09:54:29;;;;;;;12.83;9.20;;;13.60;72.70;;;;;;4995488;28;20473;-75
2022/04/25 09:56:57;;;;;;;11.87;8.67;;;13.70;72.70;;;;;;5005817;28;21002;-74
2022/04/25 09:59:25;;;;;;;15.40;9.07;;;13.80;72.80;;;;;;5000371;28;20454;-74
2022/04/25 10:02:04;;;;;;;14.70;10.43;;;13.80;72.80;;;;;;4997549;28;21113;-74
2022/04/25 10:04:36;;;;;;;11.53;8.60;;;13.90;72.50;;;;;;5004922;28;20456;-77
2022/04/25 10:07:06;;;;;;;11.77;9.27;;;13.90;72.40;;;;;;5003995;28;20536;-76
2022/04/25 10:09:35;;;;;;;12.70;9.37;;;14.00;72.40;;;;;;5004846;28;21096;-76
2022/04/25 10:12:06;;;;;;;13.13;9.93;;;14.00;72.20;;;;;;5002234;28;20483;-76
2022/04/25 10:14:34;;;;;;;12.87;9.60;;;14.00;72.00;;;;;;4998111;28;21029;-77
2022/04/25 10:17:02;;;;;;;11.67;8.53;;;14.10;71.90;;;;;;5000125;28;20476;-76
2022/04/25 10:19:30;;;;;;;13.87;10.87;;;14.10;71.80;;;;;;5000834;28;20457;-77
2022/04/25 10:22:01;;;;;;;12.77;9.93;;;14.10;71.80;;;;;;5006153;28;20454;-77
2022/04/25 10:24:29;;;;;;;11.83;9.60;;;14.10;71.60;;;;;;4999757;28;20463;-76
2022/04/25 10:26:58;;;;;;;13.30;9.40;;;14.10;71.70;;;;;;5002672;28;20879;-76
2022/04/25 10:29:37;;;;;;;12.53;10.13;;;14.10;71.50;;;;;;5002802;28;20461;-75
2022/04/25 10:32:08;;;;;;;12.33;9.90;;;14.10;71.40;;;;;;5001524;28;20465;-75
2022/04/25 10:34:47;;;;;;;14.90;10.47;;;14.10;71.40;;;;;;4995681;28;20506;-79
2022/04/25 10:37:31;;;;;;;13.00;9.70;;;14.10;71.20;;;;;;5002691;28;20481;-77
2022/04/25 10:40:00;;;;;;;12.47;9.00;;;14.10;71.00;;;;;;5006208;28;20461;-77
2022/04/25 10:45:14;;;;;;;11.77;8.83;;;14.10;71.10;;;;;;5004232;28;20480;-79
2022/04/25 10:47:58;;;;;;;14.47;9.83;;;14.10;71.00;;;;;;5010915;28;20463;-79
2022/04/25 10:50:28;;;;;;;12.20;8.93;;;14.20;70.90;;;;;;5008689;28;20837;-77
2022/04/25 10:52:59;;;;;;;13.10;9.23;;;14.20;71.00;;;;;;5007843;28;20488;-79
2022/04/25 10:55:46;;;;;;;12.00;9.47;;;14.20;70.90;;;;;;5009626;28;20487;-79
2022/04/25 10:58:21;;;;;;;12.70;10.37;;;14.30;70.80;;;;;;5008914;28;20503;-78
2022/04/25 11:00:56;;;;;;;12.13;9.20;;;14.30;70.90;;;;;;5014130;28;20468;-79
2022/04/25 11:03:29;;;;;;;12.70;8.77;;;14.30;70.90;;;;;;5009770;28;20455;-78
2022/04/25 11:06:00;;;;;;;13.40;8.13;;;14.40;70.60;;;;;;5013174;28;20488;-79
2022/04/25 11:08:40;;;;;;;13.37;8.07;;;14.40;70.60;;;;;;5013051;28;20455;-79
2022/04/25 11:11:18;;;;;;;10.20;8.20;;;14.40;70.40;;;;;;5005501;28;20505;-78
2022/04/25 11:14:11;;;;;;;11.40;8.17;;;14.40;70.30;;;;;;5005130;28;20485;-80
2022/04/25 11:16:40;;;;;;;11.73;8.57;;;14.40;70.20;;;;;;5009252;28;20458;-76
2022/04/25 11:19:19;;;;;;;19.10;12.80;;;14.40;70.20;;;;;;5009476;28;20458;-79
2022/04/25 11:21:49;;;;;;;9.60;7.40;;;14.40;70.10;;;;;;5009406;28;20511;-79
2022/04/25 11:24:37;;;;;;;10.30;7.47;;;14.40;70.00;;;;;;5013360;28;20467;-78
2022/04/25 11:27:09;;;;;;;10.93;8.93;;;14.50;69.80;;;;;;5008987;28;20456;-79
2022/04/25 11:29:43;;;;;;;9.37;6.90;;;14.50;69.80;;;;;;5011409;28;20477;-79
2022/04/25 11:32:35;;;;;;;8.70;7.17;;;14.50;69.50;;;;;;5011064;28;20465;-79
2022/04/25 11:35:05;;;;;;;8.80;7.00;;;14.60;69.20;;;;;;5010025;28;20488;-78
2022/04/25 11:37:34;;;;;;;10.03;7.40;;;14.50;69.40;;;;;;5012258;28;20457;-80
2022/04/25 11:40:05;;;;;;;10.13;8.00;;;14.60;69.30;;;;;;5011288;28;20456;-78
2022/04/25 11:42:34;;;;;;;11.37;9.20;;;14.60;69.30;;;;;;5005006;28;20834;-79
2022/04/25 11:45:04;;;;;;;13.27;9.27;;;14.60;69.20;;;;;;5020536;28;20503;-78
2022/04/25 11:47:32;;;;;;;13.07;10.10;;;14.60;69.00;;;;;;5005736;28;20457;-79
2022/04/25 11:50:02;;;;;;;21.00;10.63;;;14.60;69.20;;;;;;5019101;28;20467;-78
2022/04/25 11:52:30;;;;;;;14.63;11.23;;;14.60;69.30;;;;;;5012627;28;20457;-79
2022/04/25 11:54:59;;;;;;;19.20;13.00;;;14.60;69.30;;;;;;5012200;28;20602;-78
2022/04/25 11:57:28;;;;;;;12.03;9.33;;;14.60;69.40;;;;;;5008719;28;20449;-78
2022/04/25 12:00:14;;;;;;;12.57;9.80;;;14.60;69.40;;;;;;5001991;28;20471;-78
2022/04/25 12:02:43;;;;;;;15.70;10.67;;;14.70;69.40;;;;;;5013115;28;20467;-80
2022/04/25 12:05:12;;;;;;;13.47;11.03;;;14.80;69.50;;;;;;5008208;28;20469;-79
2022/04/25 12:16:01;;;;;;;12.67;9.03;;;14.90;69.00;;;;;;5015071;28;20905;-78
2022/04/25 12:18:31;;;;;;;9.73;8.47;;;14.90;69.00;;;;;;5003265;28;20507;-78
2022/04/25 12:21:04;;;;;;;13.67;9.10;;;15.00;69.00;;;;;;5006087;28;20548;-79
2022/04/25 12:23:33;;;;;;;12.83;8.37;;;15.00;68.70;;;;;;5000600;28;20478;-79
2022/04/25 12:26:06;;;;;;;10.87;7.60;;;15.00;68.70;;;;;;5005737;28;20465;-78
2022/04/25 12:28:37;;;;;;;9.50;7.03;;;15.00;68.40;;;;;;5003428;28;20445;-78
2022/04/25 12:31:08;;;;;;;12.73;8.80;;;15.00;68.20;;;;;;5007515;28;20492;-78
2022/04/25 12:33:37;;;;;;;17.97;12.60;;;15.00;68.20;;;;;;5016815;28;20447;-78
2022/04/25 12:36:11;;;;;;;14.03;10.37;;;15.00;67.90;;;;;;5000153;28;21036;-79
2022/04/25 12:38:41;;;;;;;14.23;10.57;;;14.90;68.00;;;;;;5020273;28;20458;-78
2022/04/25 12:41:11;;;;;;;13.83;10.47;;;14.90;68.10;;;;;;5009522;28;20548;-79
2022/04/25 12:43:45;;;;;;;13.50;8.70;;;14.90;68.10;;;;;;5004207;28;20463;-78
2022/04/25 12:46:15;;;;;;;16.70;11.43;;;14.90;68.10;;;;;;5006478;28;20492;-78
2022/04/25 12:48:57;;;;;;;14.57;11.53;;;14.90;68.10;;;;;;5010967;28;20471;-79
2022/04/25 12:51:27;;;;;;;13.30;10.10;;;14.90;68.00;;;;;;5018090;28;20452;-79
2022/04/25 12:53:56;;;;;;;13.30;11.00;;;14.90;68.10;;;;;;5006076;28;20462;-80
2022/04/25 12:56:25;;;;;;;16.13;13.27;;;14.80;68.30;;;;;;5002362;28;20476;-79
2022/04/25 12:58:55;;;;;;;18.13;14.40;;;14.80;68.50;;;;;;5002889;28;20452;-78
2022/04/25 13:01:32;;;;;;;20.43;13.77;;;14.80;68.80;;;;;;4999773;28;20475;-79
2022/04/25 13:04:12;;;;;;;28.00;17.30;;;14.70;69.10;;;;;;5005434;28;20879;-80
2022/04/25 13:06:43;;;;;;;29.33;17.40;;;14.70;69.50;;;;;;5008852;28;20492;-79
2022/04/25 13:09:12;;;;;;;34.57;22.93;;;14.60;69.70;;;;;;5017113;28;20456;-79
2022/04/25 13:11:55;;;;;;;29.43;19.63;;;14.50;70.00;;;;;;5008325;28;20632;-79
2022/04/25 13:14:25;;;;;;;25.37;18.43;;;14.50;70.30;;;;;;5003586;28;21064;-79
2022/04/25 13:16:53;;;;;;;17.90;13.93;;;14.50;70.60;;;;;;5010881;28;20481;-79
2022/04/25 13:19:21;;;;;;;22.60;15.90;;;14.50;70.80;;;;;;5003462;28;20457;-79
2022/04/25 13:21:55;;;;;;;20.27;15.70;;;14.50;71.10;;;;;;5013128;28;20453;-80
2022/04/25 13:24:23;;;;;;;16.67;13.90;;;14.40;71.30;;;;;;5008013;28;20947;-78
2022/04/25 13:26:53;;;;;;;17.80;14.23;;;14.40;71.50;;;;;;5009744;28;20487;-78
2022/04/25 13:29:21;;;;;;;18.87;14.73;;;14.30;71.80;;;;;;5011452;28;20552;-80